createdAt,value
2018-12-27T00:00:46.837Z,84.89
2018-12-27T00:03:15.089Z,87.25
2018-12-27T00:05:43.422Z,84.94
2018-12-27T00:08:11.778Z,85.59
2018-12-27T00:10:40.069Z,83.38
2018-12-27T00:13:08.378Z,80.31
2018-12-27T00:15:37.055Z,80.90
2018-12-27T00:18:05.396Z,84.37
2018-12-27T00:20:33.713Z,82.72
2018-12-27T00:23:02.057Z,79.88
2018-12-27T00:25:30.368Z,82.18
2018-12-27T00:27:58.768Z,80.29
2018-12-27T00:30:27.333Z,78.82
2018-12-27T00:33:02.929Z,76.51
2018-12-27T00:35:26.365Z,79.37
2018-12-27T00:37:54.943Z,80.33
2018-12-27T00:40:23.838Z,80.20
2018-12-27T00:42:52.408Z,76.93
2018-12-27T00:45:20.995Z,81.79
2018-12-27T00:47:49.560Z,80.63
2018-12-27T00:50:18.148Z,80.70
2018-12-27T00:52:46.839Z,81.11
2018-12-27T00:55:15.772Z,78.33
2018-12-27T00:57:44.337Z,78.71
2018-12-27T01:00:12.923Z,81.16
2018-12-27T01:02:41.493Z,82.54
2018-12-27T01:05:10.073Z,81.21
2018-12-27T01:07:38.639Z,78.80
2018-12-27T01:10:07.899Z,77.85
2018-12-27T01:12:36.470Z,80.61
2018-12-27T01:15:05.058Z,80.45
2018-12-27T01:17:34.273Z,82.81
2018-12-27T01:20:02.860Z,81.47
2018-12-27T01:22:31.509Z,84.84
2018-12-27T01:25:00.154Z,83.36
2018-12-27T01:27:28.790Z,84.99
2018-12-27T01:29:57.719Z,85.37
2018-12-27T01:32:26.432Z,86.71
2018-12-27T01:34:55.012Z,83.15
2018-12-27T01:37:23.573Z,84.36
2018-12-27T01:39:52.157Z,80.92
2018-12-27T01:42:20.717Z,84.42
2018-12-27T01:44:50.945Z,79.80
2018-12-27T01:47:19.508Z,81.57
2018-12-27T01:49:48.241Z,85.66
2018-12-27T01:52:16.814Z,83.46
2018-12-27T01:54:45.388Z,83.08
2018-12-27T01:57:15.009Z,82.26
2018-12-27T01:59:43.930Z,81.04
2018-12-27T02:02:13.194Z,82.64
2018-12-27T02:04:42.132Z,87.39
2018-12-27T02:07:10.698Z,87.39
2018-12-27T02:09:39.290Z,85.01
2018-12-27T02:12:07.948Z,82.02
2018-12-27T02:14:36.536Z,82.72
2018-12-27T02:17:05.110Z,82.67
2018-12-27T02:19:33.983Z,82.07
2018-12-27T02:22:02.651Z,83.41
2018-12-27T02:24:31.231Z,84.22
2018-12-27T02:26:59.803Z,84.32
2018-12-27T02:29:28.390Z,84.07
2018-12-27T02:31:56.960Z,83.79
2018-12-27T02:34:25.549Z,85.91
2018-12-27T02:36:54.113Z,85.96
2018-12-27T02:39:22.697Z,86.07
2018-12-27T02:41:51.261Z,84.06
2018-12-27T02:44:20.230Z,82.00
2018-12-27T02:46:48.807Z,82.33
2018-12-27T02:49:17.385Z,81.46
2018-12-27T02:51:45.946Z,83.30
2018-12-27T02:54:14.534Z,82.19
2018-12-27T02:56:43.099Z,78.16
2018-12-27T02:59:13.812Z,79.25
2018-12-27T03:01:42.402Z,78.93
2018-12-27T03:04:10.985Z,80.82
2018-12-27T03:06:39.576Z,81.47
2018-12-27T03:09:08.141Z,81.00
2018-12-27T03:11:36.813Z,81.26
2018-12-27T03:14:05.375Z,81.81
2018-12-27T03:16:34.023Z,81.63
2018-12-27T03:19:02.586Z,81.35
2018-12-27T03:21:31.175Z,81.64
2018-12-27T03:24:00.074Z,82.32
2018-12-27T03:26:28.670Z,81.38
2018-12-27T03:28:57.549Z,80.82
2018-12-27T03:31:26.642Z,79.93
2018-12-27T03:33:55.210Z,81.29
2018-12-27T03:36:23.793Z,76.65
2018-12-27T03:38:52.354Z,79.59
2018-12-27T03:41:20.938Z,79.71
2018-12-27T03:43:49.501Z,76.60
2018-12-27T03:46:18.087Z,75.98
2018-12-27T03:48:46.651Z,76.61
2018-12-27T03:51:15.240Z,78.58
2018-12-27T03:53:43.812Z,80.38
2018-12-27T03:56:12.560Z,77.64
2018-12-27T03:58:41.109Z,77.98
2018-12-27T04:01:09.769Z,76.77
2018-12-27T04:03:38.334Z,75.43
2018-12-27T04:06:07.003Z,76.53
2018-12-27T04:08:35.555Z,72.71
2018-12-27T04:11:04.157Z,72.66
2018-12-27T04:13:32.713Z,76.47
2018-12-27T04:16:01.414Z,77.63
2018-12-27T04:18:29.722Z,77.81
2018-12-27T04:20:58.054Z,79.80
2018-12-27T04:23:26.441Z,77.89
2018-12-27T04:25:55.142Z,75.85
2018-12-27T04:28:23.461Z,78.40
2018-12-27T04:30:52.331Z,75.74
2018-12-27T04:33:21.415Z,79.96
2018-12-27T04:35:50.094Z,79.26
2018-12-27T04:38:18.541Z,80.80
2018-12-27T04:40:46.799Z,80.76
2018-12-27T04:43:15.298Z,79.57
2018-12-27T04:45:43.616Z,81.55
2018-12-27T04:48:11.956Z,83.44
2018-12-27T04:50:40.271Z,83.50
2018-12-27T04:53:08.588Z,78.07
2018-12-27T04:55:36.919Z,79.05
2018-12-27T04:58:05.229Z,79.14
2018-12-27T05:00:33.566Z,77.33
2018-12-27T05:03:01.904Z,80.80
2018-12-27T05:05:30.217Z,81.98
2018-12-27T05:08:00.383Z,80.46
2018-12-27T05:10:28.882Z,79.12
2018-12-27T05:12:57.198Z,78.58
2018-12-27T05:15:25.529Z,79.48
2018-12-27T05:17:53.839Z,73.82
2018-12-27T05:20:22.184Z,75.41
2018-12-27T05:22:50.493Z,70.92
2018-12-27T05:25:19.041Z,70.04
2018-12-27T05:27:47.648Z,69.03
2018-12-27T05:30:15.978Z,70.94
2018-12-27T05:32:44.295Z,69.54
2018-12-27T05:35:13.002Z,76.89
2018-12-27T05:37:41.833Z,73.19
2018-12-27T05:40:10.239Z,67.61
2018-12-27T05:42:38.551Z,72.73
2018-12-27T05:45:06.938Z,71.57
2018-12-27T05:47:35.272Z,74.50
2018-12-27T05:50:03.924Z,74.50
2018-12-27T05:52:32.254Z,75.28
2018-12-27T05:55:00.680Z,77.31
2018-12-27T05:57:29.085Z,92.63
2018-12-27T05:59:57.405Z,80.27
2018-12-27T06:02:26.130Z,80.34
2018-12-27T06:04:54.810Z,80.94
2018-12-27T06:07:23.504Z,69.48
2018-12-27T06:09:51.837Z,75.37
2018-12-27T06:12:20.470Z,71.77
2018-12-27T06:14:48.805Z,73.96
2018-12-27T06:17:17.113Z,75.46
2018-12-27T06:19:45.627Z,72.52
2018-12-27T06:22:13.953Z,72.08
2018-12-27T06:24:42.289Z,69.94
2018-12-27T06:27:10.612Z,70.98
2018-12-27T06:29:38.921Z,71.62
2018-12-27T06:32:07.254Z,67.87
2018-12-27T06:34:41.398Z,64.39
2018-12-27T06:37:05.642Z,69.04
2018-12-27T06:39:33.958Z,72.40
2018-12-27T06:42:02.316Z,70.35
2018-12-27T06:44:30.649Z,68.96
2018-12-27T06:46:59.035Z,66.10
2018-12-27T06:49:27.372Z,67.97
2018-12-27T06:51:55.691Z,69.00
2018-12-27T06:54:24.497Z,67.23
2018-12-27T06:56:52.812Z,68.40
2018-12-27T06:59:21.141Z,70.47
2018-12-27T07:01:49.452Z,71.05
2018-12-27T07:04:17.858Z,69.01
2018-12-27T07:06:46.204Z,70.96
2018-12-27T07:09:14.884Z,71.14
2018-12-27T07:11:43.200Z,70.03
2018-12-27T07:14:11.530Z,74.74
2018-12-27T07:16:39.836Z,77.94
2018-12-27T07:19:08.517Z,78.15
2018-12-27T07:21:37.112Z,77.44
2018-12-27T07:24:05.519Z,78.37
2018-12-27T07:26:33.829Z,77.79
2018-12-27T07:29:02.158Z,78.14
2018-12-27T07:31:30.477Z,76.11
2018-12-27T07:33:58.807Z,75.42
2018-12-27T07:36:27.592Z,75.50
2018-12-27T07:38:55.924Z,74.46
2018-12-27T07:41:24.254Z,74.37
2018-12-27T07:43:52.593Z,76.84
2018-12-27T07:46:20.928Z,75.90
2018-12-27T07:48:49.251Z,76.98
2018-12-27T07:51:17.577Z,75.14
2018-12-27T07:53:45.887Z,75.06
2018-12-27T07:56:14.221Z,71.43
2018-12-27T07:58:42.633Z,72.25
2018-12-27T08:01:10.965Z,69.33
2018-12-27T08:03:39.279Z,67.91
2018-12-27T08:06:07.598Z,67.85
2018-12-27T08:08:35.974Z,69.73
2018-12-27T08:11:04.387Z,67.81
2018-12-27T08:13:32.818Z,64.21
2018-12-27T08:16:01.539Z,66.37
2018-12-27T08:18:29.866Z,66.43
2018-12-27T08:20:58.205Z,66.43
2018-12-27T08:23:26.536Z,66.67
2018-12-27T08:25:54.879Z,69.16
2018-12-27T08:28:23.483Z,68.74
2018-12-27T08:30:51.820Z,70.58
2018-12-27T08:33:20.140Z,69.00
2018-12-27T08:35:48.464Z,67.55
2018-12-27T08:38:16.783Z,68.99
2018-12-27T08:40:45.121Z,66.26
2018-12-27T08:43:13.437Z,64.99
2018-12-27T08:45:41.967Z,60.23
2018-12-27T08:48:10.298Z,60.66
2018-12-27T08:50:38.621Z,63.06
2018-12-27T08:53:06.954Z,63.90
2018-12-27T08:55:35.270Z,65.49
2018-12-27T08:58:03.613Z,70.76
2018-12-27T09:00:32.070Z,69.23
2018-12-27T09:03:00.381Z,69.96
2018-12-27T09:05:28.716Z,65.73
2018-12-27T09:07:57.046Z,64.03
2018-12-27T09:10:25.495Z,67.46
2018-12-27T09:12:53.811Z,66.54
2018-12-27T09:15:22.149Z,65.82
2018-12-27T09:17:50.465Z,69.00
2018-12-27T09:20:19.025Z,69.17
2018-12-27T09:22:47.349Z,66.12
2018-12-27T09:25:15.670Z,64.42
2018-12-27T09:27:44.022Z,67.07
2018-12-27T09:30:12.343Z,68.46
2018-12-27T09:32:40.681Z,65.97
2018-12-27T09:35:09.914Z,67.21
2018-12-27T09:37:38.279Z,70.63
2018-12-27T09:40:06.990Z,68.34
2018-12-27T09:42:35.324Z,72.62
2018-12-27T09:45:04.511Z,70.54
2018-12-27T09:47:32.849Z,69.83
2018-12-27T09:50:01.168Z,66.76
2018-12-27T09:52:29.509Z,67.21
2018-12-27T09:54:57.999Z,66.46
2018-12-27T09:57:26.314Z,63.88
2018-12-27T09:59:54.653Z,71.85
2018-12-27T10:02:22.981Z,67.50
2018-12-27T10:04:51.382Z,62.34
2018-12-27T10:07:19.696Z,62.22
2018-12-27T10:09:48.034Z,65.88
2018-12-27T10:12:16.349Z,64.45
2018-12-27T10:14:44.686Z,62.92
2018-12-27T10:17:14.051Z,63.94
2018-12-27T10:19:42.383Z,59.78
2018-12-27T10:22:10.706Z,63.90
2018-12-27T10:24:39.021Z,58.84
2018-12-27T10:27:07.358Z,63.05
2018-12-27T10:29:35.671Z,64.57
2018-12-27T10:32:04.006Z,62.03
2018-12-27T10:34:32.325Z,67.83
2018-12-27T10:37:00.666Z,66.82
2018-12-27T10:39:28.986Z,67.96
2018-12-27T10:41:57.329Z,65.36
2018-12-27T10:44:25.642Z,63.97
2018-12-27T10:46:53.966Z,65.26
2018-12-27T10:49:23.273Z,64.13
2018-12-27T10:51:51.763Z,70.81
2018-12-27T10:54:20.263Z,72.21
2018-12-27T10:56:48.934Z,73.64
2018-12-27T10:59:17.273Z,68.57
2018-12-27T11:01:45.936Z,66.64
2018-12-27T11:04:14.270Z,67.78
2018-12-27T11:06:42.909Z,67.84
2018-12-27T11:09:11.244Z,67.94
2018-12-27T11:11:39.871Z,68.85
2018-12-27T11:14:08.206Z,70.57
2018-12-27T11:16:36.522Z,71.57
2018-12-27T11:19:05.773Z,70.85
2018-12-27T11:21:34.082Z,75.35
2018-12-27T11:24:02.389Z,74.38
2018-12-27T11:26:30.735Z,71.88
2018-12-27T11:28:59.345Z,66.17
2018-12-27T11:31:27.885Z,68.11
2018-12-27T11:33:56.209Z,68.22
2018-12-27T11:36:24.541Z,71.88
2018-12-27T11:38:52.938Z,68.37
2018-12-27T11:41:21.524Z,67.42
2018-12-27T11:43:50.170Z,65.54
2018-12-27T11:46:18.481Z,70.28
2018-12-27T11:48:46.815Z,68.81
2018-12-27T11:51:15.136Z,64.87
2018-12-27T11:53:43.474Z,63.57
2018-12-27T11:56:11.785Z,65.46
2018-12-27T11:58:40.196Z,66.70
2018-12-27T12:01:08.573Z,68.41
2018-12-27T12:03:37.125Z,65.31
2018-12-27T12:06:05.802Z,64.48
2018-12-27T12:08:34.137Z,57.88
2018-12-27T12:11:02.564Z,57.32
2018-12-27T12:13:30.975Z,52.55
2018-12-27T12:15:59.290Z,49.34
2018-12-27T12:18:27.623Z,53.20
2018-12-27T12:20:55.949Z,53.99
2018-12-27T12:23:24.256Z,59.17
2018-12-27T12:25:52.607Z,54.89
2018-12-27T12:28:20.997Z,47.67
2018-12-27T12:30:49.335Z,51.08
2018-12-27T12:33:17.713Z,45.16
2018-12-27T12:35:46.385Z,45.04
2018-12-27T12:38:14.974Z,44.73
2018-12-27T12:40:43.304Z,50.64
2018-12-27T12:43:11.626Z,48.64
2018-12-27T12:45:39.947Z,48.11
2018-12-27T12:48:08.277Z,52.65
2018-12-27T12:50:36.594Z,51.25
2018-12-27T12:53:05.073Z,48.56
2018-12-27T12:55:33.741Z,53.01
2018-12-27T12:58:02.151Z,49.99
2018-12-27T13:00:30.919Z,50.32
2018-12-27T13:02:59.327Z,47.70
2018-12-27T13:05:27.644Z,51.44
2018-12-27T13:07:55.965Z,52.91
2018-12-27T13:10:24.301Z,53.65
2018-12-27T13:12:52.931Z,56.77
2018-12-27T13:15:21.721Z,54.83
2018-12-27T13:17:50.037Z,55.71
2018-12-27T13:20:18.380Z,52.47
2018-12-27T13:22:46.700Z,49.12
2018-12-27T13:25:15.033Z,50.90
2018-12-27T13:27:43.357Z,46.61
2018-12-27T13:30:12.027Z,48.66
2018-12-27T13:32:40.390Z,46.77
2018-12-27T13:35:08.887Z,49.30
2018-12-27T13:37:37.219Z,48.00
2018-12-27T13:40:07.176Z,51.42
2018-12-27T13:42:35.618Z,47.95
2018-12-27T13:45:06.311Z,47.62
2018-12-27T13:47:34.997Z,45.22
2018-12-27T13:50:03.792Z,49.64
2018-12-27T13:52:32.567Z,46.00
2018-12-27T13:55:00.883Z,46.59
2018-12-27T13:57:29.281Z,44.90
2018-12-27T13:59:57.615Z,49.03
2018-12-27T14:02:25.933Z,48.24
2018-12-27T14:04:54.273Z,48.66
2018-12-27T14:07:22.587Z,45.03
2018-12-27T14:09:50.911Z,43.53
2018-12-27T14:12:19.251Z,41.16
2018-12-27T14:14:47.899Z,43.19
2018-12-27T14:17:16.238Z,42.51
2018-12-27T14:19:44.636Z,46.51
2018-12-27T14:22:12.985Z,44.27
2018-12-27T14:24:41.302Z,45.74
2018-12-27T14:27:09.925Z,44.63
2018-12-27T14:29:38.241Z,44.63
2018-12-27T14:32:06.567Z,49.77
2018-12-27T14:34:34.898Z,51.20
2018-12-27T14:37:03.230Z,54.55
2018-12-27T14:39:31.637Z,55.54
2018-12-27T14:42:00.236Z,54.47
2018-12-27T14:44:28.550Z,53.46
2018-12-27T14:46:56.888Z,56.02
2018-12-27T14:49:25.275Z,55.47
2018-12-27T14:51:53.606Z,56.73
2018-12-27T14:54:22.310Z,57.27
2018-12-27T14:56:50.646Z,57.96
2018-12-27T14:59:19.026Z,56.08
2018-12-27T15:01:47.360Z,57.05
2018-12-27T15:04:15.678Z,58.40
2018-12-27T15:06:47.844Z,58.08
2018-12-27T15:09:14.457Z,60.86
2018-12-27T15:11:42.947Z,59.58
2018-12-27T15:14:11.291Z,61.17
2018-12-27T15:16:39.636Z,60.34
2018-12-27T15:19:08.029Z,63.73
2018-12-27T15:21:36.345Z,64.63
2018-12-27T15:24:04.692Z,62.91
2018-12-27T15:26:33.014Z,64.68
2018-12-27T15:29:01.354Z,64.40
2018-12-27T15:31:29.670Z,62.52
2018-12-27T15:33:58.006Z,62.67
2018-12-27T15:36:26.315Z,62.94
2018-12-27T15:38:54.664Z,65.56
2018-12-27T15:41:23.301Z,64.20
2018-12-27T15:43:51.687Z,64.31
2018-12-27T15:46:20.027Z,67.33
2018-12-27T15:48:48.411Z,67.97
2018-12-27T15:51:16.767Z,67.82
2018-12-27T15:53:45.091Z,66.58
2018-12-27T15:56:13.796Z,66.44
2018-12-27T15:58:42.112Z,66.24
2018-12-27T16:01:10.449Z,68.02
2018-12-27T16:03:39.151Z,66.81
2018-12-27T16:06:07.482Z,71.03
2018-12-27T16:08:35.795Z,68.61
2018-12-27T16:11:04.130Z,68.75
2018-12-27T16:13:32.451Z,67.48
2018-12-27T16:16:00.764Z,69.49
2018-12-27T16:18:29.097Z,69.35
2018-12-27T16:20:57.419Z,67.15
2018-12-27T16:23:25.777Z,64.79
2018-12-27T16:25:54.482Z,70.04
2018-12-27T16:28:22.806Z,69.34
2018-12-27T16:30:51.147Z,70.33
2018-12-27T16:33:19.837Z,69.35
2018-12-27T16:35:48.163Z,71.56
2018-12-27T16:38:16.627Z,69.96
2018-12-27T16:40:44.944Z,67.29
2018-12-27T16:43:13.475Z,65.90
2018-12-27T16:45:41.860Z,65.35
2018-12-27T16:48:10.209Z,68.41
2018-12-27T16:50:38.521Z,69.29
2018-12-27T16:53:06.870Z,66.06
2018-12-27T16:55:35.200Z,66.83
2018-12-27T16:58:03.535Z,66.67
2018-12-27T17:00:31.918Z,69.97
2018-12-27T17:03:01.201Z,68.97
2018-12-27T17:05:29.515Z,66.87
2018-12-27T17:07:58.301Z,67.14
2018-12-27T17:10:26.692Z,65.34
2018-12-27T17:12:55.000Z,66.93
2018-12-27T17:15:23.349Z,72.99
2018-12-27T17:17:51.668Z,71.35
2018-12-27T17:20:20.002Z,69.84
2018-12-27T17:22:48.320Z,68.96
2018-12-27T17:25:16.662Z,68.79
2018-12-27T17:27:44.985Z,65.07
2018-12-27T17:30:13.327Z,69.96
2018-12-27T17:32:41.645Z,66.74
2018-12-27T17:35:09.973Z,65.69
2018-12-27T17:37:38.305Z,73.32
2018-12-27T17:40:07.095Z,70.84
2018-12-27T17:42:35.430Z,71.02
2018-12-27T17:45:03.813Z,72.62
2018-12-27T17:47:32.217Z,69.79
2018-12-27T17:50:00.543Z,70.31
2018-12-27T17:52:30.343Z,68.10
2018-12-27T17:54:59.307Z,71.81
2018-12-27T17:57:27.649Z,70.03
2018-12-27T17:59:56.472Z,73.01
2018-12-27T18:02:24.806Z,72.42
2018-12-27T18:04:53.206Z,69.26
2018-12-27T18:07:21.595Z,72.17
2018-12-27T18:09:49.927Z,75.60
2018-12-27T18:12:18.242Z,77.11
2018-12-27T18:14:47.177Z,74.16
2018-12-27T18:17:15.639Z,74.81
2018-12-27T18:19:43.976Z,75.49
2018-12-27T18:22:12.624Z,71.44
2018-12-27T18:24:40.938Z,73.70
2018-12-27T18:27:09.272Z,77.53
2018-12-27T18:29:37.604Z,74.12
2018-12-27T18:32:06.082Z,72.47
2018-12-27T18:34:34.396Z,69.38
2018-12-27T18:37:02.841Z,68.57
2018-12-27T18:39:31.165Z,68.55
2018-12-27T18:41:59.506Z,68.79
2018-12-27T18:44:27.958Z,70.90
2018-12-27T18:46:56.302Z,75.52
2018-12-27T18:49:24.958Z,78.46
2018-12-27T18:51:53.274Z,77.24
2018-12-27T18:54:21.690Z,75.69
2018-12-27T18:56:50.080Z,72.39
2018-12-27T18:59:18.396Z,71.22
2018-12-27T19:01:46.818Z,76.78
2018-12-27T19:04:15.137Z,75.06
2018-12-27T19:06:43.693Z,73.45
2018-12-27T19:09:12.015Z,72.63
2018-12-27T19:12:17.053Z,72.80
2018-12-27T19:14:45.367Z,73.41
2018-12-27T19:17:19.787Z,73.89
2018-12-27T19:19:48.125Z,73.89
2018-12-27T19:22:19.172Z,71.14
2018-12-27T19:24:47.504Z,72.74
2018-12-27T19:27:15.820Z,74.19
2018-12-27T19:29:44.146Z,72.73
2018-12-27T19:32:12.478Z,71.19
2018-12-27T19:34:40.821Z,73.66
2018-12-27T19:37:09.212Z,73.64
2018-12-27T19:39:37.837Z,71.32
2018-12-27T19:42:06.155Z,75.56
2018-12-27T19:44:34.666Z,77.32
2018-12-27T19:47:03.281Z,77.43
2018-12-27T19:49:31.617Z,76.71
2018-12-27T19:52:00.049Z,76.24
2018-12-27T19:54:32.031Z,80.73
2018-12-27T19:56:58.779Z,81.50
2018-12-27T19:59:27.160Z,75.16
2018-12-27T20:01:56.806Z,75.27
2018-12-27T20:04:25.543Z,82.78
2018-12-27T20:06:53.912Z,79.68
2018-12-27T20:09:22.742Z,75.04
2018-12-27T20:11:51.131Z,72.21
2018-12-27T20:14:19.653Z,83.65
2018-12-27T20:16:48.054Z,84.10
2018-12-27T20:19:16.365Z,78.29
2018-12-27T20:21:44.769Z,79.60
2018-12-27T20:24:13.173Z,85.85
2018-12-27T20:26:41.482Z,85.61
2018-12-27T20:29:09.811Z,87.77
2018-12-27T20:31:38.193Z,91.80
2018-12-27T20:34:06.552Z,93.77
2018-12-27T20:36:34.881Z,96.10
2018-12-27T20:39:04.293Z,96.13
2018-12-27T20:41:33.004Z,90.34
2018-12-27T20:44:01.332Z,97.48
2018-12-27T20:46:29.746Z,97.21
2018-12-27T20:48:58.107Z,95.39
2018-12-27T20:51:26.439Z,96.10
2018-12-27T20:53:55.104Z,96.52
2018-12-27T20:56:23.452Z,99.92
2018-12-27T20:58:51.836Z,100.00
2018-12-27T21:01:20.153Z,100.00
2018-12-27T21:03:48.494Z,97.23
2018-12-27T21:06:16.827Z,100.00
2018-12-27T21:08:45.183Z,100.00
2018-12-27T21:11:13.533Z,100.00
2018-12-27T21:13:41.935Z,98.62
2018-12-27T21:16:10.246Z,98.62
2018-12-27T21:18:38.568Z,99.29
2018-12-27T21:21:06.982Z,99.01
2018-12-27T21:23:35.298Z,97.16
2018-12-27T21:26:04.112Z,99.45
2018-12-27T21:28:32.784Z,96.08
2018-12-27T21:31:01.440Z,98.12
2018-12-27T21:33:29.776Z,95.51
2018-12-27T21:35:58.090Z,95.18
2018-12-27T21:38:26.410Z,93.57
2018-12-27T21:40:54.746Z,89.61
2018-12-27T21:43:23.064Z,91.95
2018-12-27T21:45:51.386Z,86.61
2018-12-27T21:48:20.018Z,94.85
2018-12-27T21:50:48.507Z,94.85
2018-12-27T21:53:16.864Z,93.55
2018-12-27T21:55:45.177Z,94.63
2018-12-27T21:58:13.518Z,89.91
2018-12-27T22:00:41.840Z,89.75
2018-12-27T22:03:10.251Z,89.94
2018-12-27T22:05:38.567Z,88.23
2018-12-27T22:08:06.908Z,94.60
2018-12-27T22:10:36.117Z,95.49
2018-12-27T22:13:04.582Z,95.72
2018-12-27T22:15:32.891Z,96.95
2018-12-27T22:18:01.225Z,96.82
2018-12-27T22:20:29.536Z,98.85
2018-12-27T22:22:57.855Z,93.86
2018-12-27T22:25:26.215Z,89.83
2018-12-27T22:27:54.846Z,99.53
2018-12-27T22:30:23.179Z,97.67
2018-12-27T22:32:51.608Z,97.60
2018-12-27T22:35:19.959Z,98.54
2018-12-27T22:37:48.379Z,96.78
2018-12-27T22:40:16.702Z,100.00
2018-12-27T22:42:45.045Z,95.87
2018-12-27T22:45:13.377Z,98.75
2018-12-27T22:47:41.698Z,97.94
2018-12-27T22:50:10.014Z,94.99
2018-12-27T22:52:38.360Z,100.00
2018-12-27T22:55:07.036Z,100.00
2018-12-27T22:57:35.373Z,96.09
2018-12-27T23:00:05.416Z,100.00
2018-12-27T23:02:34.128Z,92.85
2018-12-27T23:05:02.814Z,92.44
2018-12-27T23:07:31.200Z,99.98
2018-12-27T23:09:59.538Z,99.77
2018-12-27T23:12:27.870Z,98.41
2018-12-27T23:14:56.544Z,95.48
2018-12-27T23:17:24.918Z,100.00
2018-12-27T23:19:53.239Z,100.00
2018-12-27T23:22:21.575Z,99.09
2018-12-27T23:24:49.893Z,95.13
2018-12-27T23:27:18.662Z,93.32
2018-12-27T23:29:47.004Z,99.43
2018-12-27T23:32:15.317Z,97.57
2018-12-27T23:34:44.004Z,93.81
2018-12-27T23:37:12.318Z,98.62
2018-12-27T23:39:40.869Z,96.79
2018-12-27T23:42:09.185Z,97.08
2018-12-27T23:44:37.501Z,97.47
2018-12-27T23:47:05.832Z,96.72
2018-12-27T23:49:34.500Z,89.12
2018-12-27T23:52:02.845Z,86.39
2018-12-27T23:54:31.574Z,87.18
2018-12-27T23:56:59.989Z,93.47
2018-12-27T23:59:28.318Z,89.31
